Aerodrome Latest Weathers

# Airport/Station Observation Time (Local Time) Wind Visibility (km) Weather Temp. (°C) Dewdrop (°C) Air Pressure (hPa)
Direction (from) Speed (km/h)
1 Maimun Saleh - Sabang 2024-06-22 07:00:00 WIB Selatan 24.1 6.0 Berawan 29 21 1008
2 Sultan Iskandar Muda - Banda Aceh 2024-06-22 07:30:00 WIB Selatan 5.6 >=10 Berawan 28 21 1007
3 Malikus Saleh - Lhokseumawe 2024-06-22 07:00:00 WIB Tenggara 9.3 8.0 Cerah - berawan 25 24 1007
4 Binaka - Gunung Sitoli 2024-06-22 07:30:00 WIB Selatan 7.4 6.0 Berawan 23 23 1009
5 Kualanamu International Airport - Deli Serdang 2024-06-22 07:30:00 WIB Timur 16.7 8.0 Berawan 24 24 1008
6 Dr. Ferdinand Lumban Tobing - Pinangsori (Sibolga) 2024-06-22 05:00:00 WIB Timur 1.9 >=10 Berawan 22 22 1009
7 Silangit - Tapanuli Utara 2024-06-22 07:30:00 WIB Barat 27.8 5.0 Udara kabur 18 17 1018
8 Aek Godang - Padang Sidempuan 2024-06-22 07:30:00 WIB Barat Laut 7.4 7.0 Berawan 23 21 1010
9 Minangkabau International Airport - Padang 2024-06-22 07:30:00 WIB Tenggara 3.7 9.0 Berawan 25 23 1010
10 Sultan Syarif Kasim II - Pekanbaru 2024-06-22 07:30:00 WIB Tenggara 7.4 6.0 Berawan 23 23 1009
11 Depati Parbo - Kerinci 2024-06-22 07:30:00 WIB Tenggara 5.6 7.0 Berawan 20 18 1016
12 Japura - Rengat 2024-06-22 07:00:00 WIB Tenggara 5.6 5.0 Hujan ringan 23 23 1010
13 Fatmawati Sukarno - Bengkulu 2024-06-22 07:30:00 WIB Barat 3.7 5.0 Udara kabur 25 23 1009
14 Raja Haji Abdullah - Tanjung Balai Karimun 2024-06-22 07:00:00 WIB Barat Daya 9.3 6.0 Hujan 24 23 1011
15 Sultan Thaha - Jambi 2024-06-22 07:30:00 WIB Barat Laut 7.4 >=10 Berawan 23 22 1011
16 Hang Nadim - Batam 2024-06-22 07:30:00 WIB Barat 11.1 5.0 Hujan 23 23 1013
17 Raja Haji Fisabilillah - Tanjung Pinang 2024-06-22 07:30:00 WIB Barat Daya 14.8 3.0 Hujan 23 23 1011
18 Dabo - Singkep 2024-06-22 07:00:00 WIB Barat 18.5 5.0 Hujan ringan 23 23 1011
19 Sultan Mahmud Badaruddin II - Palembang 2024-06-22 07:40:00 WIB Selatan 5.6 3.2 Halimun 26 26 1011
20 Radin Inten II - Lampung 2024-06-22 07:30:00 WIB Tenang 2.0 Halimun 24 24 1011
21 Astra Ksetra - Lampung 2024-06-22 07:00:00 WIB Tenang 1.0 Halimun 25 24 1009
22 Depati Amir - Pangkal Pinang 2024-06-22 07:30:00 WIB Tenggara 7.4 8.0 Berawan 26 24 1010
23 Budiarto - Curug 2024-06-22 07:30:00 WIB Barat Daya 1.9 0.8 Berkabut 25 25 1011
24 Soekarno Hatta - Jakarta 2024-06-22 07:30:00 WIB Variabel 7.4 3.0 Udara kabur 28 23 1011
25 Atang Sendjaja - Bogor 2024-06-22 07:30:00 WIB Selatan 3.7 2.0 Halimun 24 23 1011
26 Halim Perdana Kusuma - Jakarta 2024-06-22 07:30:00 WIB Selatan 5.6 3.0 Udara kabur 27 24 1011
27 Husein Sastranegara - Bandung 2024-06-22 07:30:00 WIB Timur 9.3 3.0 Udara kabur 21 19 1017
28 Suryadarma - Kalijati, Subang 2024-06-22 07:00:00 WIB Selatan 3.7 4.0 Halimun 23 23 1011
29 H.A.S. Hanandjoeddin - Tanjung Pandan 2024-06-22 07:30:00 WIB Tenggara 9.3 7.0 Cerah - berawan 28 25 1011
30 Kertajati 2024-06-22 07:30:00 WIB Selatan 24.1 >=10 Cerah - berawan 27 20 1012
31 Wiriadinata - Cibeureum, Tasikmalaya 2024-06-22 07:00:00 WIB Tenang 4.0 Halimun 21 20 1015
32 Ranai - Natuna 2024-06-22 06:30:00 WIB Barat 7.4 5.0 Hujan ringan 25 24 1008
33 Cakrabhuwana / Penggung - Cirebon 2024-06-22 07:30:00 WIB Variabel 3.7 7.0 Cerah - berawan 26 19 1012
34 Tunggul Wulung - Cilacap 2024-06-22 07:30:00 WIB Barat 3.7 5.0 Udara kabur 24 21 1012
35 Paloh - Sambas 2024-06-22 07:00:00 WIB Selatan 9.3 >=10 Cerah - berawan 24 23 1010
36 Supadio - Pontianak 2024-06-22 07:30:00 WIB Tenggara 9.3 6.0 Hujan ringan 24 24 1010
37 Rahadi Oesman - Ketapang 2024-06-22 07:30:00 WIB Timur 9.3 >=10 Cerah 27 25 1011
38 Yogyakarta International Airport - Kulonprogo 2024-06-22 07:30:00 WIB Timur 11.1 >=10 Berawan 25 22 1012
39 Ahmad Yani - Semarang 2024-06-22 07:30:00 WIB Tenggara 7.4 5.0 Udara kabur 25 21 1012
40 Adi Sutjipto - Yogyakarta 2024-06-22 07:30:00 WIB Tenang 6.0 Cerah - berawan 23 21 1012
41 Adi Soemarmo - Surakarta 2024-06-22 07:30:00 WIB Barat Daya 7.4 5.0 Udara kabur 23 21 1013
42 Iswahjudi - Madiun 2024-06-22 07:00:00 WIB Selatan 9.3 7.0 Cerah - berawan 24 21 1013
43 Tebelian - Sintang 2024-06-22 06:30:00 WIB Barat 13.0 5.0 Udara kabur 24 23 1011
44 Iskandar - Pangkalan Bun 2024-06-22 07:30:00 WIB Barat Laut 5.6 >=10 Cerah 25 23 1011
45 Nanga Pinoh 2024-06-22 07:00:00 WIB Barat 3.7 3.0 Udara kabur 25 24 1010
46 Dhoho 2024-06-22 07:30:00 WIB Selatan 18.5 >=10 Cerah - berawan 26 20 1012
47 Bawean - Harun Thohir 2024-06-22 07:30:00 WIB Timur 13.0 >=10 Cerah - berawan 29 24 1011
48 Abdulrachman Saleh - Malang 2024-06-22 07:30:00 WIB Tenang 5.0 Udara kabur 22 16 1017
49 Juanda - Surabaya 2024-06-22 07:30:00 WIB Tenggara 5.6 4.0 Udara kabur 25 23 1012
50 Pangsuma - Putussibau 2024-06-22 07:00:00 WIB Tenang 8.0 Berawan 25 25 1012
51 Haji Asan - Sampit 2024-06-22 07:30:00 WIB Timur 13.0 8.0 Cerah - berawan 27 26 1011
52 Noto Hadinegoro - Jember 2024-06-22 07:30:00 WIB Selatan 3.7 5.0 Cerah - berawan 24 23 1014
53 Trunojoyo - Sumenep 2024-06-22 06:00:00 WIB Barat Laut 3.7 Cerah 23 21 1011
54 Tjilik Riwut - Palangkaraya 2024-06-22 07:30:00 WIB Tenggara 7.4 >=10 Cerah - berawan 27 23 1010
55 Banyuwangi 2024-06-22 07:30:00 WIB Barat 5.6 8.0 Cerah - berawan 26 24 1014
56 Sanggu - Buntok 2024-06-22 07:00:00 WIB Tenang 0.8 Berkabut 25 24 1011
57 Haji Muhammad Sidik - Muara Teweh 2024-06-22 07:30:00 WIB Tenang 6.0 Berawan 26 25 1011
58 H. Hasan Aroeboesman - Ende 2024-06-22 07:30:00 WIB Tenggara 7.4 8.0 Berawan 26 25 1013
59 Syamsudin Noor - Banjarmasin 2024-06-22 08:30:00 WITA Tenggara 5.6 >=10 Cerah - berawan 26 24 1010
60 I Gusti Ngurah Rai - Denpasar 2024-06-22 08:30:00 WITA Tenggara 20.4 >=10 Berawan 28 25 1013
61 Yuvai Semaring - Long Bawang 2024-06-22 08:00:00 WITA Timur Laut 5.6 4.0 Halimun 22 20 1016
62 Gusti Sjamsir Alam - Kota Baru 2024-06-22 08:30:00 WITA Barat Daya 7.4 8.0 Berawan 27 26 1010
63 Bandara Internasional Lombok - Praya 2024-06-22 08:30:00 WITA Variabel 3.7 7.0 Berawan 27 23 1014
64 Bandar Udara Robert Atty Bessing 2024-06-22 08:30:00 WITA Tenang 7.0 Berawan 29 29 1009
65 Sultan Aji Muhammad Sulaiman - Sepinggan 2024-06-22 07:00:00 WITA Barat 11.1 >=10 Berawan 26 25 1010
66 Aji Pangeran Tumenggung Pranoto - Samarinda 2024-06-22 08:30:00 WITA Barat Daya 9.3 >=10 Cerah - berawan 27 27 1010
67 Tanjung Harapan - Tanjung Selor 2024-06-22 08:30:00 WITA Tenang 8.0 Cerah - berawan 26 24 1010
68 Sultan Muhammad Kaharuddin - Sumbawa Besar 2024-06-22 08:30:00 WITA Tenggara 13.0 >=10 Cerah - berawan 28 21 1012
69 Kalimarau - Tanjung Redeb 2024-06-22 08:30:00 WITA Barat Daya 9.3 8.0 Berawan 27 25 1011
70 Juwata - Tarakan 2024-06-22 08:30:00 WITA Barat Daya 9.3 >=10 Berawan 30 26 1010
71 Nunukan 2024-06-22 08:30:00 WITA Barat Daya 5.6 8.0 Berawan 28 24 1009
72 Sultan Muhammad Salahuddin - Bima 2024-06-22 08:30:00 WITA Selatan 20.4 >=10 Cerah - berawan 28 22 1012
73 Tampa Padang - Mamuju 2024-06-22 08:30:00 WITA Variabel 3.7 >=10 Cerah - berawan 28 25 1010
74 Tambolaka - Sumba Barat 2024-06-22 08:30:00 WITA Tenggara 14.8 >=10 Cerah - berawan 26 21 1011
75 Sultan Hasanuddin - Makassar 2024-06-22 08:30:00 WITA Variabel 3.7 >=10 Cerah - berawan 27 26 1011
76 Pongtiku - Tana Toraja 2024-06-22 08:00:00 WITA Tenang >=10 Berawan 21 20 1012
77 Komodo - Labuan Bajo 2024-06-22 08:30:00 WITA Barat 14.8 >=10 Cerah - berawan 28 20 1013
78 Mutiara SIS Al-Jufri - Palu 2024-06-22 08:30:00 WITA Variabel 3.7 9.0 Cerah - berawan 28 24 1011
79 Umbu Mehang Kunda - Waingapu 2024-06-22 08:30:00 WITA Timur 20.4 >=10 Cerah - berawan 28 23 1014
80 Andi Jemma - Masamba 2024-06-22 08:00:00 WITA Tenang 8.0 Berawan 26 23 1012
81 Frans Sales Lega - Ruteng 2024-06-22 08:30:00 WITA Timur 11.1 >=10 Cerah - berawan 23 17 1017
82 Kasiguncu - Poso 2024-06-22 08:00:00 WITA Tenang >=10 Cerah - berawan 28 22 1010
83 Sultan Bantilan - Toli Toli 2024-06-22 08:00:00 WITA Tenang >=10 Cerah - berawan 28 26 1010
84 SOA - Bajawa 2024-06-22 08:00:00 WITA Barat Daya 3.7 4.0 Berawan 24 22 1017
85 Sangia Nibandera - Kolaka 2024-06-22 08:30:00 WITA Selatan 1.9 Cerah 27 24 1012
86 Tardamu - Sabu 2024-06-22 08:30:00 WITA Timur 22.2 >=10 Cerah - berawan 29 22 1013
87 Fransiskus Xaverius Seda - Maumere 2024-06-22 08:30:00 WITA Selatan 18.5 >=10 Debu vulkanik di sekitarnya 30 24 1014
88 Haluoleo - Kendari 2024-06-22 08:30:00 WITA Timur 11.1 6.0 Berawan 25 24 1014
89 Beto Ambari - Bau Bau 2024-06-22 08:00:00 WITA Utara 1.9 8.0 Hujan ringan 26 25 1014
90 Syukuran Aminuddin Amir - Luwuk 2024-06-22 08:00:00 WITA Barat 9.3 >=10 Berawan 26 23 1012
91 Djalaluddin - Gorontalo 2024-06-22 08:30:00 WITA Selatan 3.7 >=10 Berawan 28 24 1009
92 Gewayantana - Larantuka 2024-06-22 08:30:00 WITA Selatan 7.4 >=10 Cerah - berawan 29 23 1012
93 David Constantijn Saudale - Rote 2024-06-22 08:00:00 WITA Timur 22.2 >=10 Cerah - berawan 27 20 1015
94 El Tari - Kupang 2024-06-22 08:30:00 WITA Timur 31.5 >=10 Cerah - berawan 31 24 1014
95 Mali - Alor 2024-06-22 08:30:00 WITA Timur 7.4 >=10 Cerah - berawan 27 23 1013
96 A.A. Bere Talo / Atambua 2024-06-22 08:00:00 WITA Timur Laut 9.3 >=10 Cerah - berawan 27 16 1014
97 Sam Ratulangi - Manado 2024-06-22 08:30:00 WITA Variabel 5.6 >=10 Berawan 27 25 1013
98 Naha - Tahuna 2024-06-22 08:00:00 WITA Barat Daya 14.8 8.0 Cerah - berawan 26 25 1010
99 Emalamo - Sanana 2024-06-22 09:00:00 WIT Timur Laut 3.7 >=10 Cerah - berawan 29 24 1010
100 Sultan Babullah - Ternate 2024-06-22 09:30:00 WIT Variabel 3.7 >=10 Cerah - berawan 29 26 1011
101 Oesman Sadik - Labuha 2024-06-22 09:00:00 WIT Tenang 8.0 Berawan 25 25 1011
102 Gamar Malamo - Galela 2024-06-22 09:11:00 WIT Tenang 8.0 Hujan ringan 26 25 1011
103 Pattimura - Ambon 2024-06-22 09:30:00 WIT Barat Daya 5.6 1.0 Hujan ringan 24 23 1013
104 Pitu - Morotai 2024-06-22 09:00:00 WIT Timur 7.4 4.0 Hujan ringan 27 25 1011
105 Bandaneira - Banda 2024-06-22 09:00:00 WIT Timur 35.2 8.0 Berawan 27 23 1012
106 Domine Eduard Osok - Sorong 2024-06-22 09:30:00 WIT Tenggara 13.0 9.0 Berawan 29 24 1011
107 Mathilda Batlayeri - Saumlaki 2024-06-22 09:00:00 WIT Tenggara 16.7 >=10 Berawan 27 22 1013
108 Torea - Fak Fak 2024-06-22 09:30:00 WIT Tenggara 7.4 >=10 Cerah - berawan 28 24 1013
109 Karel Sadsuitubun - Tual 2024-06-22 09:00:00 WIT Tenggara 14.8 >=10 Berawan 26 23 1013
110 Utarom - Kaimana 2024-06-22 07:00:00 WIT Selatan 16.7 7.0 Hujan tiba-tiba di sekitarnya 25 24 1012
111 Rendani - Manokwari 2024-06-22 08:00:00 WIT Tenggara 5.6 >=10 Berawan 28 25 1011
112 Douw Aturure - Nabire 2024-06-22 09:30:00 WIT Tenang >=10 Berawan 28 26 1011
113 Stevanus Rumbewas - Serui 2024-06-22 08:00:00 WIT Tenang >=10 Berawan 27 25 1011
114 Frans Kaisiepo - Biak 2024-06-22 09:30:00 WIT Timur 5.6 >=10 Berawan 29 26 1011
115 Enarotali 2024-06-22 09:00:00 WIT Timur 5.6 8.0 Berawan 21 15 1011
116 Mozes Kilangin - Timika 2024-06-22 09:30:00 WIT Timur 14.8 8.0 Berawan 26 24 1015
117 Mararena / Orai - Sarmi 2024-06-22 09:00:00 WIT Selatan 3.7 >=10 Cerah - berawan 28 28 1012
118 Wamena 2024-06-22 09:30:00 WIT Utara 7.4 >=10 Berawan 20 17 1022
119 Tanah Merah 2024-06-22 09:00:00 WIT Tenggara 3.7 7.0 Berawan 25 24 1014
120 Mopah - Merauke 2024-06-22 09:30:00 WIT Timur 13.0 5.0 Hujan ringan 25 24 1013
121 Sentani - Jayapura 2024-06-22 09:30:00 WIT Timur 7.4 >=10 Cerah - berawan 30 25 1011

Satellite Images

Wave Height Forecast

Wind Forecast

Forest Fires